createdAt,value
2019-04-09T00:00:59.847Z,0
2019-04-09T00:01:59.839Z,0
2019-04-09T00:02:59.805Z,0
2019-04-09T00:04:00.548Z,0
2019-04-09T00:04:59.807Z,0
2019-04-09T00:06:00.676Z,0
2019-04-09T00:06:59.817Z,0
2019-04-09T00:08:03.816Z,0
2019-04-09T00:09:00.531Z,0
2019-04-09T00:09:59.755Z,0
2019-04-09T00:10:59.898Z,0
2019-04-09T00:12:00.378Z,0
2019-04-09T00:13:00.780Z,0
2019-04-09T00:13:59.896Z,0
2019-04-09T00:15:00.563Z,0
2019-04-09T00:16:00.612Z,0
2019-04-09T00:16:59.814Z,0
2019-04-09T00:17:59.812Z,0
2019-04-09T00:19:00.492Z,0
2019-04-09T00:19:59.722Z,0
2019-04-09T00:20:59.866Z,0
2019-04-09T00:21:59.812Z,0
2019-04-09T00:22:59.814Z,0
2019-04-09T00:23:59.759Z,0
2019-04-09T00:24:59.914Z,0
2019-04-09T00:25:59.793Z,0
2019-04-09T00:26:59.866Z,0
2019-04-09T00:27:59.867Z,0
2019-04-09T00:29:00.143Z,0
2019-04-09T00:30:00.209Z,0
2019-04-09T00:31:00.131Z,0
2019-04-09T00:31:59.881Z,0
2019-04-09T00:32:59.865Z,0
2019-04-09T00:33:59.800Z,0
2019-04-09T00:35:00.689Z,0
2019-04-09T00:35:59.784Z,0
2019-04-09T00:37:00.388Z,0
2019-04-09T00:38:00.276Z,0
2019-04-09T00:38:59.881Z,0
2019-04-09T00:39:59.805Z,0
2019-04-09T00:40:59.757Z,0
2019-04-09T00:42:00.458Z,0
2019-04-09T00:43:00.487Z,0
2019-04-09T00:43:59.871Z,0
2019-04-09T00:44:59.781Z,0
2019-04-09T00:46:00.634Z,0
2019-04-09T00:46:59.873Z,0
2019-04-09T00:47:59.867Z,0
2019-04-09T00:49:00.791Z,0
2019-04-09T00:50:00.770Z,0
2019-04-09T00:50:59.881Z,0
2019-04-09T00:51:59.894Z,0
2019-04-09T00:53:00.955Z,0
2019-04-09T00:54:00.793Z,0
2019-04-09T00:54:59.881Z,0
2019-04-09T00:56:00.014Z,0
2019-04-09T00:57:05.071Z,0
2019-04-09T00:57:59.884Z,0
2019-04-09T00:58:59.886Z,0
2019-04-09T00:59:59.904Z,0
2019-04-09T01:00:59.822Z,0
2019-04-09T01:01:59.820Z,0
2019-04-09T01:02:59.897Z,0
2019-04-09T01:03:59.889Z,0
2019-04-09T01:05:00.453Z,0
2019-04-09T01:06:00.507Z,0
2019-04-09T01:07:00.421Z,0
2019-04-09T01:07:59.825Z,0
2019-04-09T01:09:01.140Z,0
2019-04-09T01:09:59.956Z,0
2019-04-09T01:10:59.894Z,0
2019-04-09T01:11:59.829Z,0
2019-04-09T01:13:00.088Z,0
2019-04-09T01:13:59.837Z,0
2019-04-09T01:15:00.248Z,0
2019-04-09T01:15:59.901Z,0
2019-04-09T01:16:59.870Z,0
2019-04-09T01:18:00.687Z,0
2019-04-09T01:19:09.745Z,0
2019-04-09T01:20:00.624Z,0
2019-04-09T01:21:00.625Z,0
2019-04-09T01:21:59.879Z,0
2019-04-09T01:22:59.830Z,0
2019-04-09T01:23:59.939Z,0
2019-04-09T01:24:59.898Z,0
2019-04-09T01:25:59.956Z,0
2019-04-09T01:27:10.566Z,0
2019-04-09T01:28:00.004Z,0
2019-04-09T01:28:59.832Z,0
2019-04-09T01:30:00.049Z,0
2019-04-09T01:31:00.935Z,0
2019-04-09T01:32:00.158Z,0
2019-04-09T01:33:00.157Z,0
2019-04-09T01:33:59.815Z,0
2019-04-09T01:34:59.847Z,0
2019-04-09T01:35:59.919Z,0
2019-04-09T01:37:00.033Z,0
2019-04-09T01:37:59.860Z,0
2019-04-09T01:38:59.850Z,0
2019-04-09T01:39:59.855Z,0
2019-04-09T01:40:59.923Z,0
2019-04-09T01:42:00.279Z,0
2019-04-09T01:43:00.104Z,0
2019-04-09T01:44:00.003Z,0
2019-04-09T01:45:00.789Z,0
2019-04-09T01:45:59.947Z,0
2019-04-09T01:46:59.978Z,0
2019-04-09T01:47:59.840Z,0
2019-04-09T01:48:59.824Z,0
2019-04-09T01:50:00.901Z,0
2019-04-09T01:50:59.877Z,0
2019-04-09T01:51:59.914Z,0
2019-04-09T01:53:00.891Z,0
2019-04-09T01:53:59.853Z,0
2019-04-09T01:55:00.294Z,0
2019-04-09T01:56:00.286Z,0
2019-04-09T01:57:00.060Z,0
2019-04-09T01:58:00.023Z,0
2019-04-09T01:58:59.946Z,0
2019-04-09T01:59:59.902Z,0
2019-04-09T02:01:00.897Z,0
2019-04-09T02:01:59.898Z,0
2019-04-09T02:03:00.367Z,0
2019-04-09T02:04:00.307Z,0
2019-04-09T02:04:59.876Z,0
2019-04-09T02:06:00.572Z,0
2019-04-09T02:06:59.796Z,0
2019-04-09T02:07:59.789Z,0
2019-04-09T02:09:00.767Z,0
2019-04-09T02:10:00.496Z,0
2019-04-09T02:11:00.180Z,0
2019-04-09T02:11:59.929Z,0
2019-04-09T02:12:59.794Z,0
2019-04-09T02:14:00.670Z,0
2019-04-09T02:15:00.682Z,0
2019-04-09T02:15:59.920Z,0
2019-04-09T02:16:59.965Z,0
2019-04-09T02:17:59.938Z,0
2019-04-09T02:19:00.810Z,0
2019-04-09T02:20:00.635Z,0
2019-04-09T02:20:59.886Z,0
2019-04-09T02:21:59.860Z,0
2019-04-09T02:23:00.989Z,0
2019-04-09T02:24:00.850Z,0
2019-04-09T02:25:00.546Z,0
2019-04-09T02:25:59.917Z,0
2019-04-09T02:26:59.853Z,0
2019-04-09T02:28:00.411Z,0
2019-04-09T02:29:00.391Z,0
2019-04-09T02:29:59.959Z,0
2019-04-09T02:30:59.860Z,0
2019-04-09T02:31:59.874Z,0
2019-04-09T02:33:00.682Z,0
2019-04-09T02:34:00.808Z,0
2019-04-09T02:35:00.324Z,0
2019-04-09T02:35:59.983Z,0
2019-04-09T02:37:01.662Z,0
2019-04-09T02:38:00.138Z,0
2019-04-09T02:39:00.805Z,0
2019-04-09T02:40:00.818Z,0
2019-04-09T02:41:00.779Z,0
2019-04-09T02:41:59.868Z,0
2019-04-09T02:42:59.985Z,0
2019-04-09T02:44:00.606Z,0
2019-04-09T02:44:59.908Z,0
2019-04-09T02:45:59.912Z,0
2019-04-09T02:46:59.814Z,0
2019-04-09T02:48:00.826Z,0
2019-04-09T02:48:59.818Z,0
2019-04-09T02:49:59.912Z,0
2019-04-09T02:50:59.823Z,0
2019-04-09T02:51:59.902Z,0
2019-04-09T02:53:00.500Z,0
2019-04-09T02:54:00.718Z,0
2019-04-09T02:55:00.339Z,0
2019-04-09T02:55:59.948Z,0
2019-04-09T02:56:59.890Z,0
2019-04-09T02:58:00.441Z,0
2019-04-09T02:58:59.973Z,0
2019-04-09T02:59:59.991Z,0
2019-04-09T03:00:59.970Z,0
2019-04-09T03:01:59.934Z,0
2019-04-09T03:03:00.909Z,0
2019-04-09T03:04:00.101Z,0
2019-04-09T03:05:00.064Z,0
2019-04-09T03:05:59.981Z,0
2019-04-09T03:06:59.912Z,0
2019-04-09T03:07:59.914Z,0
2019-04-09T03:08:59.986Z,0
2019-04-09T03:09:59.922Z,0
2019-04-09T03:10:59.912Z,0
2019-04-09T03:12:00.637Z,0
2019-04-09T03:12:59.986Z,0
2019-04-09T03:13:59.918Z,0
2019-04-09T03:14:59.944Z,0
2019-04-09T03:16:00.605Z,0
2019-04-09T03:17:00.023Z,0
2019-04-09T03:18:00.284Z,0
2019-04-09T03:19:00.327Z,0
2019-04-09T03:20:00.028Z,0
2019-04-09T03:20:59.963Z,0
2019-04-09T03:21:59.946Z,0
2019-04-09T03:23:00.310Z,0
2019-04-09T03:24:00.148Z,0
2019-04-09T03:24:59.971Z,0
2019-04-09T03:25:59.957Z,0
2019-04-09T03:26:59.968Z,0
2019-04-09T03:28:05.869Z,0
2019-04-09T03:28:59.920Z,0
2019-04-09T03:30:00.016Z,0
2019-04-09T03:31:01.532Z,0
2019-04-09T03:32:00.819Z,0
2019-04-09T03:33:00.377Z,0
2019-04-09T03:34:01.976Z,0
2019-04-09T03:35:00.739Z,0
2019-04-09T03:36:00.633Z,0
2019-04-09T03:37:00.025Z,0
2019-04-09T03:38:00.034Z,0
2019-04-09T03:38:59.979Z,0
2019-04-09T03:40:00.688Z,0
2019-04-09T03:41:00.390Z,0
2019-04-09T03:42:00.147Z,0
2019-04-09T03:43:00.022Z,0
2019-04-09T03:44:00.398Z,0
2019-04-09T03:45:00.258Z,0
2019-04-09T03:46:00.003Z,0
2019-04-09T03:46:59.956Z,0
2019-04-09T03:48:00.131Z,0
2019-04-09T03:49:00.146Z,0
2019-04-09T03:50:00.780Z,0
2019-04-09T03:51:00.180Z,0
2019-04-09T03:52:00.186Z,0
2019-04-09T03:53:00.196Z,0
2019-04-09T03:53:59.973Z,0
2019-04-09T03:54:59.953Z,0
2019-04-09T03:56:01.546Z,0
2019-04-09T03:56:59.978Z,0
2019-04-09T03:58:11.996Z,0
2019-04-09T03:59:00.292Z,0
2019-04-09T04:00:00.411Z,0
2019-04-09T04:00:59.968Z,0
2019-04-09T04:02:00.063Z,4
2019-04-09T04:03:00.930Z,4
2019-04-09T04:04:00.974Z,0
2019-04-09T04:05:00.020Z,0
2019-04-09T04:06:00.015Z,4
2019-04-09T04:07:01.086Z,4
2019-04-09T04:08:00.376Z,4
2019-04-09T04:09:00.462Z,8
2019-04-09T04:09:59.950Z,4
2019-04-09T04:11:00.660Z,12
2019-04-09T04:12:00.684Z,12
2019-04-09T04:13:00.027Z,12
2019-04-09T04:14:00.065Z,16
2019-04-09T04:15:00.047Z,16
2019-04-09T04:16:00.055Z,20
2019-04-09T04:17:00.054Z,24
2019-04-09T04:18:00.929Z,32
2019-04-09T04:19:00.972Z,36
2019-04-09T04:20:00.239Z,44
2019-04-09T04:21:00.292Z,52
2019-04-09T04:22:00.297Z,64
2019-04-09T04:23:00.375Z,76
2019-04-09T04:24:00.233Z,88
2019-04-09T04:25:00.061Z,104
2019-04-09T04:26:00.633Z,124
2019-04-09T04:27:00.912Z,144
2019-04-09T04:28:00.835Z,168
2019-04-09T04:29:00.851Z,200
2019-04-09T04:30:00.116Z,228
2019-04-09T04:31:01.085Z,256
2019-04-09T04:32:00.488Z,296
2019-04-09T04:33:00.347Z,332
2019-04-09T04:33:59.946Z,376
2019-04-09T04:34:59.988Z,420
2019-04-09T04:36:00.024Z,472
2019-04-09T04:37:00.048Z,520
2019-04-09T04:38:00.284Z,572
2019-04-09T04:39:00.064Z,624
2019-04-09T04:40:00.022Z,684
2019-04-09T04:41:00.131Z,740
2019-04-09T04:42:00.823Z,800
2019-04-09T04:43:00.628Z,876
2019-04-09T04:43:59.956Z,960
2019-04-09T04:45:00.076Z,1048
2019-04-09T04:46:00.574Z,1144
2019-04-09T04:46:59.983Z,1248
2019-04-09T04:48:00.078Z,1356
2019-04-09T04:49:00.423Z,1472
2019-04-09T04:50:00.212Z,1600
2019-04-09T04:51:00.051Z,1736
2019-04-09T04:52:01.045Z,1868
2019-04-09T04:53:00.131Z,2008
2019-04-09T04:54:00.091Z,2144
2019-04-09T04:55:00.189Z,2296
2019-04-09T04:55:59.934Z,2444
2019-04-09T04:57:00.048Z,2588
2019-04-09T04:58:00.068Z,2748
2019-04-09T04:59:01.278Z,2896
2019-04-09T05:00:00.405Z,3060
2019-04-09T05:01:00.047Z,3228
2019-04-09T05:02:00.511Z,3404
2019-04-09T05:03:00.015Z,3572
2019-04-09T05:04:00.636Z,3728
2019-04-09T05:05:00.329Z,3904
2019-04-09T05:06:00.082Z,4076
2019-04-09T05:06:59.990Z,4248
2019-04-09T05:08:00.064Z,4408
2019-04-09T05:08:59.987Z,4584
2019-04-09T05:10:00.063Z,4772
2019-04-09T05:11:00.066Z,4948
2019-04-09T05:12:00.011Z,5144
2019-04-09T05:13:00.064Z,5328
2019-04-09T05:14:01.114Z,5508
2019-04-09T05:15:00.079Z,5688
2019-04-09T05:16:00.030Z,5860
2019-04-09T05:17:00.263Z,6032
2019-04-09T05:18:00.721Z,6196
2019-04-09T05:19:00.106Z,6340
2019-04-09T05:20:00.560Z,6512
2019-04-09T05:21:00.028Z,6664
2019-04-09T05:22:00.104Z,6864
2019-04-09T05:23:01.076Z,7024
2019-04-09T05:24:00.339Z,7180
2019-04-09T05:25:00.113Z,7348
2019-04-09T05:26:00.078Z,7516
2019-04-09T05:27:00.279Z,7716
2019-04-09T05:28:00.436Z,8044
2019-04-09T05:29:03.642Z,8288
2019-04-09T05:30:00.343Z,8528
2019-04-09T05:31:00.926Z,8776
2019-04-09T05:32:00.224Z,8992
2019-04-09T05:33:01.602Z,9312
2019-04-09T05:34:00.918Z,9556
2019-04-09T05:35:00.941Z,9820
2019-04-09T05:36:00.008Z,10068
2019-04-09T05:37:00.375Z,10332
2019-04-09T05:38:00.923Z,10588
2019-04-09T05:39:01.288Z,10860
2019-04-09T05:40:01.044Z,11132
2019-04-09T05:41:00.018Z,11436
2019-04-09T05:42:00.489Z,11720
2019-04-09T05:43:00.088Z,12000
2019-04-09T05:44:00.701Z,12264
2019-04-09T05:45:01.031Z,12520
2019-04-09T05:46:00.021Z,12868
2019-04-09T05:47:00.102Z,13244
2019-04-09T05:48:01.136Z,13672
2019-04-09T05:49:00.091Z,14084
2019-04-09T05:50:00.450Z,14656
2019-04-09T05:51:00.560Z,15828
2019-04-09T05:52:00.049Z,16648
2019-04-09T05:53:00.094Z,17164
2019-04-09T05:54:00.826Z,17620
2019-04-09T05:55:00.184Z,18052
2019-04-09T05:56:01.204Z,18384
2019-04-09T05:57:00.041Z,18596
2019-04-09T05:58:00.001Z,18792
2019-04-09T05:59:07.598Z,19240
2019-04-09T06:00:00.109Z,20096
2019-04-09T06:01:00.889Z,20512
2019-04-09T06:02:00.118Z,21088
2019-04-09T06:03:01.172Z,21728
2019-04-09T06:04:01.149Z,21760
2019-04-09T06:05:00.445Z,21696
2019-04-09T06:06:00.903Z,23008
2019-04-09T06:07:00.623Z,23712
2019-04-09T06:08:00.124Z,23648
2019-04-09T06:09:00.117Z,24256
2019-04-09T06:10:00.078Z,23584
2019-04-09T06:11:01.158Z,23648
2019-04-09T06:12:00.433Z,23520
2019-04-09T06:13:00.899Z,26848
2019-04-09T06:14:00.164Z,26560
2019-04-09T06:15:00.935Z,29632
2019-04-09T06:16:00.129Z,27456
2019-04-09T06:17:01.078Z,27680
2019-04-09T06:18:00.057Z,27648
2019-04-09T06:19:00.820Z,28064
2019-04-09T06:20:00.147Z,28288
2019-04-09T06:21:00.511Z,28128
2019-04-09T06:22:01.154Z,26144
2019-04-09T06:23:00.124Z,31456
2019-04-09T06:24:00.491Z,29760
2019-04-09T06:25:00.138Z,29280
2019-04-09T06:26:00.177Z,28128
2019-04-09T06:27:00.132Z,30144
2019-04-09T06:28:00.138Z,31104
2019-04-09T06:29:14.294Z,32224
2019-04-09T06:30:00.132Z,32800
2019-04-09T06:31:00.127Z,33248
2019-04-09T06:32:00.077Z,33888
2019-04-09T06:33:00.034Z,34464
2019-04-09T06:34:00.138Z,34752
2019-04-09T06:35:00.069Z,34880
2019-04-09T06:36:00.052Z,35200
2019-04-09T06:37:00.124Z,35328
2019-04-09T06:38:00.712Z,35296
2019-04-09T06:39:00.610Z,35744
2019-04-09T06:40:01.039Z,36480
2019-04-09T06:41:01.132Z,37856
2019-04-09T06:42:00.345Z,39232
2019-04-09T06:43:01.062Z,40384
2019-04-09T06:44:00.269Z,40896
2019-04-09T06:45:00.134Z,41024
2019-04-09T06:46:00.138Z,40512
2019-04-09T06:47:00.301Z,40256
2019-04-09T06:48:00.127Z,40704
2019-04-09T06:49:00.038Z,41952
2019-04-09T06:50:01.223Z,42560
2019-04-09T06:51:01.130Z,42560
2019-04-09T06:52:01.189Z,42784
2019-04-09T06:53:01.162Z,42944
2019-04-09T06:54:00.136Z,43136
2019-04-09T06:55:05.459Z,43776
2019-04-09T06:56:00.955Z,43808
2019-04-09T06:57:01.112Z,44320
2019-04-09T06:58:03.056Z,45184
2019-04-09T06:59:00.976Z,45664
2019-04-09T07:00:01.152Z,46208
2019-04-09T07:01:00.316Z,47040
2019-04-09T07:02:00.093Z,47584
2019-04-09T07:03:00.801Z,48096
2019-04-09T07:04:01.412Z,48416
2019-04-09T07:05:00.068Z,49152
2019-04-09T07:06:00.165Z,50080
2019-04-09T07:07:00.049Z,50912
2019-04-09T07:08:00.790Z,51136
2019-04-09T07:09:00.173Z,51744
2019-04-09T07:10:00.090Z,52480
2019-04-09T07:11:10.764Z,53344
2019-04-09T07:12:00.163Z,53856
2019-04-09T07:13:00.961Z,54592
2019-04-09T07:14:00.178Z,55968
2019-04-09T07:15:00.127Z,56864
2019-04-09T07:16:00.889Z,57152
2019-04-09T07:17:00.404Z,57600
2019-04-09T07:18:00.165Z,57536
2019-04-09T07:19:00.052Z,57056
2019-04-09T07:20:01.150Z,57344
2019-04-09T07:21:01.349Z,57632
2019-04-09T07:22:00.442Z,57888
2019-04-09T07:23:00.134Z,58080
2019-04-09T07:24:00.106Z,57184
2019-04-09T07:25:00.107Z,57056
2019-04-09T07:26:00.639Z,61696
2019-04-09T07:27:00.095Z,62944
2019-04-09T07:28:00.278Z,63840
2019-04-09T07:29:02.062Z,63872
2019-04-09T07:30:07.041Z,63168
2019-04-09T07:31:00.087Z,62400
2019-04-09T07:32:02.779Z,61504
2019-04-09T07:33:00.097Z,60096
2019-04-09T07:34:00.166Z,59840
2019-04-09T07:35:00.155Z,61216
2019-04-09T07:36:03.108Z,63360
2019-04-09T07:37:00.101Z,65856
2019-04-09T07:38:00.165Z,68256
2019-04-09T07:39:00.121Z,68864
2019-04-09T07:40:01.090Z,67808
2019-04-09T07:41:01.114Z,66016
2019-04-09T07:42:00.202Z,63904
2019-04-09T07:43:02.778Z,62176
2019-04-09T07:44:03.507Z,61120
2019-04-09T07:45:05.469Z,62656
2019-04-09T07:46:00.168Z,65920
2019-04-09T07:47:00.729Z,69984
2019-04-09T07:48:00.870Z,72960
2019-04-09T07:49:00.903Z,74944
2019-04-09T07:50:03.706Z,76064
2019-04-09T07:51:01.064Z,75552
2019-04-09T07:52:00.992Z,73888
2019-04-09T07:53:02.426Z,72512
2019-04-09T07:54:04.659Z,71808
2019-04-09T07:55:00.434Z,72544
2019-04-09T07:56:00.988Z,74080
2019-04-09T07:57:02.187Z,77536
2019-04-09T07:58:00.066Z,81536
2019-04-09T07:59:01.090Z,84448
2019-04-09T08:00:09.079Z,86176
2019-04-09T08:01:00.125Z,86048
2019-04-09T08:02:00.213Z,84960
2019-04-09T08:03:01.314Z,82400
2019-04-09T08:04:04.431Z,79328
2019-04-09T08:05:00.562Z,77120
2019-04-09T08:06:00.366Z,76416
2019-04-09T08:07:03.771Z,76800
2019-04-09T08:08:01.942Z,79008
2019-04-09T08:09:00.427Z,81920
2019-04-09T08:10:00.271Z,85824
2019-04-09T08:11:04.057Z,88864
2019-04-09T08:12:00.530Z,90592
2019-04-09T08:13:00.140Z,92096
2019-04-09T08:14:00.098Z,91744
2019-04-09T08:15:01.557Z,89536
2019-04-09T08:16:00.212Z,87904
2019-04-09T08:17:00.448Z,86464
2019-04-09T08:18:04.814Z,85536
2019-04-09T08:19:00.138Z,86080
2019-04-09T08:20:00.989Z,86944
2019-04-09T08:21:01.285Z,87872
2019-04-09T08:22:01.173Z,88416
2019-04-09T08:23:00.680Z,88544
2019-04-09T08:24:00.152Z,89824
2019-04-09T08:25:01.520Z,92000
2019-04-09T08:26:03.299Z,94592
2019-04-09T08:27:00.206Z,95520
2019-04-09T08:28:00.210Z,94944
2019-04-09T08:29:00.811Z,94048
2019-04-09T08:30:15.282Z,91968
2019-04-09T08:31:00.207Z,89120
2019-04-09T08:32:09.158Z,87776
2019-04-09T08:33:00.208Z,87744
2019-04-09T08:34:00.597Z,88608
2019-04-09T08:35:03.034Z,92288
2019-04-09T08:36:02.157Z,96928
2019-04-09T08:37:00.917Z,100096
2019-04-09T08:38:01.195Z,100448
2019-04-09T08:39:03.410Z,98496
2019-04-09T08:40:00.229Z,94464
2019-04-09T08:41:00.959Z,91968
2019-04-09T08:42:00.341Z,91200
2019-04-09T08:43:03.910Z,90336
2019-04-09T08:44:03.947Z,91232
2019-04-09T08:45:00.254Z,93664
2019-04-09T08:46:00.230Z,97344
2019-04-09T08:47:01.901Z,100800
2019-04-09T08:48:01.162Z,103040
2019-04-09T08:49:00.167Z,105024
2019-04-09T08:50:01.219Z,105376
2019-04-09T08:51:01.181Z,103776
2019-04-09T08:52:00.178Z,101408
2019-04-09T08:53:00.389Z,98080
2019-04-09T08:54:00.443Z,92896
2019-04-09T08:55:01.480Z,87360
2019-04-09T08:56:06.215Z,84448
2019-04-09T08:57:00.238Z,85824
2019-04-09T08:58:01.249Z,88544
2019-04-09T08:59:00.949Z,93408
2019-04-09T09:00:00.174Z,98656
2019-04-09T09:01:27.798Z,101888
2019-04-09T09:02:14.163Z,104288
2019-04-09T09:03:00.281Z,106112
2019-04-09T09:04:06.025Z,107296
2019-04-09T09:05:09.147Z,108256
2019-04-09T09:06:04.033Z,110400
2019-04-09T09:07:00.272Z,112256
2019-04-09T09:08:03.807Z,113184
2019-04-09T09:09:01.248Z,113632
2019-04-09T09:10:01.259Z,114336
2019-04-09T09:11:00.236Z,115424
2019-04-09T09:12:05.201Z,116256
2019-04-09T09:13:01.246Z,116480
2019-04-09T09:14:00.322Z,114496
2019-04-09T09:15:00.239Z,110944
2019-04-09T09:16:00.180Z,107136
2019-04-09T09:17:06.010Z,104384
2019-04-09T09:18:01.304Z,104448
2019-04-09T09:19:00.477Z,105472
2019-04-09T09:20:03.013Z,106720
2019-04-09T09:21:13.141Z,108672
2019-04-09T09:22:04.249Z,110240
2019-04-09T09:23:00.852Z,110464
2019-04-09T09:24:00.848Z,109376
2019-04-09T09:25:00.255Z,109312
2019-04-09T09:26:03.438Z,109696
2019-04-09T09:27:00.304Z,108896
2019-04-09T09:28:02.778Z,110112
2019-04-09T09:29:00.151Z,112704
2019-04-09T09:30:00.234Z,114944
2019-04-09T09:31:11.629Z,116384
2019-04-09T09:32:01.158Z,115584
2019-04-09T09:33:00.207Z,112128
2019-04-09T09:34:01.012Z,106976
2019-04-09T09:35:03.004Z,103168
2019-04-09T09:36:04.387Z,100480
2019-04-09T09:37:00.366Z,98112
2019-04-09T09:38:00.196Z,100512
2019-04-09T09:39:02.495Z,106016
2019-04-09T09:40:01.044Z,110144
2019-04-09T09:41:02.627Z,113984
2019-04-09T09:42:01.155Z,114304
2019-04-09T09:43:00.202Z,112384
2019-04-09T09:44:00.600Z,111520
2019-04-09T09:45:03.335Z,111392
2019-04-09T09:46:02.763Z,113984
2019-04-09T09:47:00.591Z,116928
2019-04-09T09:48:00.267Z,118848
2019-04-09T09:49:00.997Z,122144
2019-04-09T09:50:06.385Z,122528
2019-04-09T09:51:00.267Z,120704
2019-04-09T09:52:00.205Z,119584
2019-04-09T09:53:01.951Z,117600
2019-04-09T09:54:02.464Z,115264
2019-04-09T09:55:02.629Z,112416
2019-04-09T09:56:02.090Z,112512
2019-04-09T09:57:00.208Z,113504
2019-04-09T09:58:00.674Z,112800
2019-04-09T09:59:00.783Z,115072
2019-04-09T10:00:04.191Z,117984
2019-04-09T10:01:09.098Z,120192
2019-04-09T10:02:03.433Z,122304
2019-04-09T10:03:00.333Z,124064
2019-04-09T10:04:00.198Z,123488
2019-04-09T10:05:00.945Z,122976
2019-04-09T10:06:05.349Z,122816
2019-04-09T10:07:01.148Z,121408
2019-04-09T10:08:05.697Z,120192
2019-04-09T10:09:00.404Z,120480
2019-04-09T10:10:00.249Z,121056
2019-04-09T10:11:01.543Z,120736
2019-04-09T10:12:00.197Z,120288
2019-04-09T10:13:02.536Z,120288
2019-04-09T10:14:00.360Z,118944
2019-04-09T10:15:04.458Z,117472
2019-04-09T10:16:01.383Z,116160
2019-04-09T10:17:00.284Z,115264
2019-04-09T10:18:02.918Z,116512
2019-04-09T10:19:08.491Z,118880
2019-04-09T10:20:01.482Z,122624
2019-04-09T10:21:00.451Z,125920
2019-04-09T10:22:01.966Z,128032
2019-04-09T10:23:01.425Z,128224
2019-04-09T10:24:09.101Z,124864
2019-04-09T10:25:01.680Z,123200
2019-04-09T10:26:03.265Z,124064
2019-04-09T10:27:00.292Z,124096
2019-04-09T10:28:00.222Z,123648
2019-04-09T10:29:02.936Z,125312
2019-04-09T10:30:05.032Z,128032
2019-04-09T10:31:00.583Z,129184
2019-04-09T10:32:00.725Z,127360
2019-04-09T10:33:00.236Z,125568
2019-04-09T10:34:00.298Z,125984
2019-04-09T10:35:04.290Z,126112
2019-04-09T10:36:03.307Z,126880
2019-04-09T10:37:00.332Z,127136
2019-04-09T10:38:01.178Z,126016
2019-04-09T10:39:01.823Z,124384
2019-04-09T10:40:01.193Z,125984
2019-04-09T10:41:00.339Z,128480
2019-04-09T10:42:03.177Z,129568
2019-04-09T10:43:00.257Z,129152
2019-04-09T10:44:01.387Z,126912
2019-04-09T10:45:01.729Z,122688
2019-04-09T10:46:01.040Z,119616
2019-04-09T10:47:00.248Z,119584
2019-04-09T10:48:00.370Z,123456
2019-04-09T10:49:02.775Z,133248
2019-04-09T10:50:00.249Z,135136
2019-04-09T10:51:00.789Z,132128
2019-04-09T10:52:00.279Z,130720
2019-04-09T10:53:00.762Z,126400
2019-04-09T10:54:04.793Z,125632
2019-04-09T10:55:00.382Z,127232
2019-04-09T10:56:00.268Z,129472
2019-04-09T10:57:04.950Z,130880
2019-04-09T10:58:00.472Z,129696
2019-04-09T10:59:00.546Z,128384
2019-04-09T11:00:04.171Z,123232
2019-04-09T11:01:00.332Z,120128
2019-04-09T11:02:00.653Z,120000
2019-04-09T11:03:02.247Z,122016
2019-04-09T11:04:00.987Z,126528
2019-04-09T11:05:00.335Z,131424
2019-04-09T11:06:02.499Z,135776
2019-04-09T11:07:02.916Z,136608
2019-04-09T11:08:04.146Z,133408
2019-04-09T11:09:00.412Z,129216
2019-04-09T11:10:01.089Z,125728
2019-04-09T11:11:00.263Z,121632
2019-04-09T11:12:00.589Z,121216
2019-04-09T11:13:02.566Z,124960
2019-04-09T11:14:05.186Z,128800
2019-04-09T11:15:02.162Z,131424
2019-04-09T11:16:01.952Z,130720
2019-04-09T11:17:03.276Z,128064
2019-04-09T11:18:01.288Z,125920
2019-04-09T11:19:00.263Z,124992
2019-04-09T11:20:01.441Z,123296
2019-04-09T11:21:03.597Z,124256
2019-04-09T11:22:00.284Z,124192
2019-04-09T11:23:00.750Z,122816
2019-04-09T11:24:01.529Z,122656
2019-04-09T11:25:03.472Z,124640
2019-04-09T11:26:00.236Z,126784
2019-04-09T11:27:00.335Z,126656
2019-04-09T11:28:03.578Z,124608
2019-04-09T11:29:00.498Z,124416
2019-04-09T11:30:01.223Z,121440
2019-04-09T11:31:00.341Z,119904
2019-04-09T11:32:06.395Z,119712
2019-04-09T11:33:00.374Z,120192
2019-04-09T11:34:01.405Z,121152
2019-04-09T11:35:00.353Z,124480
2019-04-09T11:36:00.978Z,125728
2019-04-09T11:37:01.264Z,126848
2019-04-09T11:38:01.413Z,127168
2019-04-09T11:39:00.358Z,126592
2019-04-09T11:40:00.733Z,124576
2019-04-09T11:41:01.355Z,120608
2019-04-09T11:42:01.232Z,121504
2019-04-09T11:43:00.288Z,122752
2019-04-09T11:44:00.606Z,122912
2019-04-09T11:45:00.301Z,122784
2019-04-09T11:46:00.376Z,121216
2019-04-09T11:47:00.990Z,117888
2019-04-09T11:48:00.382Z,112384
2019-04-09T11:49:00.377Z,106656
2019-04-09T11:50:01.420Z,107616
2019-04-09T11:51:01.331Z,112288
2019-04-09T11:52:00.284Z,118720
2019-04-09T11:53:00.250Z,126048
2019-04-09T11:54:01.531Z,130336
2019-04-09T11:55:00.244Z,129504
2019-04-09T11:56:00.319Z,123904
2019-04-09T11:57:00.294Z,118944
2019-04-09T11:58:01.340Z,116160
2019-04-09T11:59:00.485Z,116896
2019-04-09T12:00:00.300Z,120000
2019-04-09T12:01:00.374Z,125312
2019-04-09T12:02:05.720Z,130784
2019-04-09T12:03:00.941Z,133600
2019-04-09T12:04:00.300Z,131424
2019-04-09T12:05:01.183Z,126080
2019-04-09T12:06:00.733Z,120864
2019-04-09T12:07:00.376Z,117280
2019-04-09T12:08:00.383Z,120704
2019-04-09T12:09:01.288Z,127360
2019-04-09T12:10:00.307Z,133952
2019-04-09T12:11:00.754Z,135616
2019-04-09T12:12:01.157Z,133376
2019-04-09T12:13:00.309Z,130144
2019-04-09T12:14:00.315Z,124640
2019-04-09T12:15:00.428Z,120064
2019-04-09T12:16:01.355Z,118688
2019-04-09T12:17:00.382Z,120704
2019-04-09T12:18:00.323Z,124736
2019-04-09T12:19:00.273Z,127872
2019-04-09T12:20:06.328Z,131232
2019-04-09T12:21:00.518Z,129664
2019-04-09T12:22:00.319Z,123456
2019-04-09T12:23:01.427Z,120896
2019-04-09T12:24:00.324Z,119744
2019-04-09T12:25:00.388Z,119168
2019-04-09T12:26:00.389Z,119040
2019-04-09T12:27:02.508Z,118688
2019-04-09T12:28:00.474Z,117984
2019-04-09T12:29:09.806Z,117568
2019-04-09T12:30:01.543Z,116864
2019-04-09T12:31:00.329Z,116928
2019-04-09T12:32:12.746Z,117216
2019-04-09T12:33:04.555Z,116000
2019-04-09T12:34:00.341Z,113792
2019-04-09T12:35:03.271Z,113696
2019-04-09T12:36:00.562Z,112640
2019-04-09T12:37:01.479Z,112800
2019-04-09T12:38:00.240Z,115936
2019-04-09T12:39:00.255Z,117248
2019-04-09T12:40:00.330Z,116864
2019-04-09T12:41:01.368Z,114048
2019-04-09T12:42:00.256Z,114272
2019-04-09T12:43:00.804Z,116864
2019-04-09T12:44:01.677Z,117888
2019-04-09T12:45:00.381Z,117728
2019-04-09T12:46:01.015Z,116192
2019-04-09T12:47:02.844Z,110752
2019-04-09T12:48:00.333Z,106944
2019-04-09T12:49:00.351Z,108288
2019-04-09T12:50:00.411Z,112896
2019-04-09T12:51:00.510Z,117056
2019-04-09T12:52:00.351Z,122688
2019-04-09T12:53:01.340Z,125184
2019-04-09T12:54:00.408Z,122944
2019-04-09T12:55:00.347Z,117760
2019-04-09T12:56:00.537Z,113888
2019-04-09T12:57:00.265Z,112608
2019-04-09T12:58:00.251Z,113600
2019-04-09T12:59:01.007Z,111872
2019-04-09T13:00:01.289Z,111328
2019-04-09T13:01:00.423Z,107552
2019-04-09T13:02:00.845Z,104672
2019-04-09T13:03:00.759Z,101408
2019-04-09T13:04:00.361Z,97728
2019-04-09T13:05:00.363Z,101568
2019-04-09T13:06:00.336Z,105696
2019-04-09T13:07:00.373Z,106496
2019-04-09T13:08:00.376Z,103328
2019-04-09T13:09:00.351Z,100736
2019-04-09T13:10:00.551Z,97280
2019-04-09T13:11:00.437Z,96128
2019-04-09T13:12:00.425Z,97888
2019-04-09T13:13:02.029Z,100544
2019-04-09T13:14:01.397Z,101408
2019-04-09T13:15:00.391Z,99456
2019-04-09T13:16:00.890Z,96736
2019-04-09T13:17:01.367Z,92288
2019-04-09T13:18:00.554Z,91360
2019-04-09T13:19:00.701Z,94432
2019-04-09T13:20:00.332Z,92448
2019-04-09T13:21:00.397Z,94272